createdAt,value
2023-10-10T02:47:32.296Z,11.23
2023-10-10T02:50:13.125Z,11.63
2023-10-10T02:55:52.924Z,11.56
2023-10-10T02:58:27.780Z,11.77
2023-10-10T03:00:58.950Z,11.75
2023-10-10T03:03:27.730Z,11.83
2023-10-10T03:06:02.098Z,11.92
2023-10-10T03:08:34.591Z,11.88
2023-10-10T03:11:02.861Z,11.94
2023-10-10T03:13:52.857Z,12.13
2023-10-10T03:16:22.440Z,12.03
2023-10-10T03:19:03.300Z,12.00
2023-10-10T03:21:47.326Z,11.98
2023-10-10T03:24:29.415Z,12.06
2023-10-10T03:27:13.966Z,11.97
2023-10-10T03:29:53.519Z,12.25
2023-10-10T03:32:26.362Z,12.28
2023-10-10T03:35:05.767Z,12.27
2023-10-10T03:37:42.740Z,12.20
2023-10-10T03:40:48.345Z,12.36
2023-10-10T03:43:37.400Z,12.30
2023-10-10T03:46:25.525Z,12.15
2023-10-10T03:49:10.690Z,12.20
2023-10-10T03:51:56.330Z,12.23
2023-10-10T03:54:41.542Z,12.24
2023-10-10T03:57:27.187Z,12.26
2023-10-10T04:00:12.596Z,12.24
2023-10-10T04:02:59.516Z,12.21
2023-10-10T04:05:44.947Z,12.18
2023-10-10T04:08:47.036Z,12.10
2023-10-10T04:11:33.275Z,12.20
2023-10-10T04:14:19.057Z,12.21
2023-10-10T04:17:06.064Z,12.12
2023-10-10T04:19:51.777Z,12.16
2023-10-10T04:22:37.380Z,12.43
2023-10-10T04:25:23.150Z,12.33
2023-10-10T04:28:08.253Z,12.26
2023-10-10T04:30:53.986Z,12.35
2023-10-10T04:33:39.311Z,12.42
2023-10-10T04:36:27.760Z,12.36
2023-10-10T04:39:16.141Z,12.41
2023-10-10T04:42:01.430Z,12.24
2023-10-10T04:44:50.492Z,12.31
2023-10-10T04:47:36.136Z,12.38
2023-10-10T04:50:21.707Z,12.36
2023-10-10T04:53:06.970Z,12.33
2023-10-10T04:55:54.155Z,12.44
2023-10-10T04:58:40.585Z,12.32
2023-10-10T05:01:29.554Z,12.43
2023-10-10T05:04:15.440Z,12.49
2023-10-10T05:07:03.850Z,12.40
2023-10-10T05:09:49.257Z,12.54
2023-10-10T05:12:45.386Z,12.41
2023-10-10T05:15:39.706Z,12.60
2023-10-10T05:18:28.756Z,12.65
2023-10-10T05:21:14.999Z,12.53
2023-10-10T05:23:50.758Z,12.53
2023-10-10T05:26:21.019Z,12.49
2023-10-10T05:28:50.610Z,12.61
2023-10-10T05:31:23.044Z,12.61
2023-10-10T05:33:56.363Z,12.64
2023-10-10T05:36:29.047Z,12.61
2023-10-10T05:38:57.331Z,12.64
2023-10-10T05:41:24.402Z,12.66
2023-10-10T05:44:02.522Z,12.61
2023-10-10T05:46:29.483Z,12.53
2023-10-10T05:48:57.762Z,12.67
2023-10-10T05:51:36.505Z,12.66
2023-10-10T05:57:49.934Z,12.53
2023-10-10T06:00:19.589Z,12.80
2023-10-10T06:02:50.338Z,12.70
2023-10-10T06:12:20.487Z,12.70
2023-10-10T06:14:49.921Z,12.66
2023-10-10T06:17:17.696Z,12.72
2023-10-10T06:19:46.973Z,12.66
2023-10-10T06:22:16.497Z,12.90
2023-10-10T06:24:43.710Z,12.85
2023-10-10T06:27:16.306Z,12.98
2023-10-10T06:33:48.099Z,13.06
2023-10-10T06:36:24.299Z,13.16
2023-10-10T06:39:44.481Z,13.28
2023-10-10T06:42:13.619Z,13.12
2023-10-10T06:44:42.617Z,13.13
2023-10-10T06:47:13.447Z,13.02
2023-10-10T06:50:05.106Z,13.37
2023-10-10T07:03:56.056Z,13.50
2023-10-10T07:06:23.218Z,13.72
2023-10-10T12:04:52.154Z,15.72
2023-10-10T12:07:33.481Z,15.74
2023-10-10T12:10:10.730Z,15.69
2023-10-10T12:12:53.030Z,15.91
2023-10-10T12:15:43.106Z,15.59
2023-10-10T12:18:21.950Z,15.76
2023-10-10T12:21:24.239Z,15.94
2023-10-10T12:28:57.854Z,15.71
2023-10-10T12:31:30.696Z,15.75
2023-10-10T12:34:27.335Z,15.70
2023-10-10T12:37:06.959Z,16.07
2023-10-10T12:37:12.423Z,16.02
2023-10-10T12:51:07.129Z,15.96
2023-10-10T12:59:32.241Z,16.36
2023-10-10T14:53:46.955Z,15.65
2023-10-10T15:01:54.100Z,15.59
2023-10-10T15:04:24.151Z,15.63
2023-10-10T15:07:43.072Z,15.71
2023-10-10T15:29:59.358Z,15.77
2023-10-10T21:27:03.500Z,14.78
2023-10-10T21:29:31.011Z,14.63
2023-10-10T21:32:00.272Z,14.80
2023-10-10T21:34:32.398Z,14.79
2023-10-10T21:37:02.198Z,14.81
2023-10-10T21:39:29.979Z,14.93
2023-10-10T21:42:00.399Z,14.89
2023-10-10T21:44:28.746Z,15.09
2023-10-10T21:46:58.834Z,14.97
2023-10-10T21:49:37.285Z,14.89
2023-10-10T21:52:08.970Z,14.99
2023-10-10T21:54:57.412Z,14.81
2023-10-10T21:57:34.696Z,14.58
2023-10-10T22:00:11.237Z,14.93
2023-10-10T22:02:46.101Z,14.60
2023-10-10T22:05:20.456Z,14.61
2023-10-10T22:07:55.135Z,14.74
2023-10-10T22:10:30.540Z,14.65
2023-10-10T22:12:59.358Z,14.71
2023-10-10T22:15:26.916Z,14.57
2023-10-10T22:17:59.568Z,14.72
2023-10-10T22:20:35.380Z,14.79
2023-10-10T22:23:08.294Z,14.76
2023-10-10T22:25:51.934Z,14.70
2023-10-10T22:28:27.618Z,14.73
2023-10-10T22:30:58.642Z,14.83
2023-10-10T22:33:28.382Z,14.65
2023-10-10T22:35:58.171Z,14.79
2023-10-10T22:38:31.339Z,14.73
2023-10-10T22:41:07.982Z,14.65
2023-10-10T22:44:02.394Z,14.83
2023-10-10T22:46:38.652Z,14.57
2023-10-10T22:49:13.398Z,14.58
2023-10-10T22:51:44.701Z,14.66
2023-10-10T22:54:45.149Z,14.63
2023-10-10T22:57:21.744Z,14.62
2023-10-10T22:59:53.338Z,14.64
2023-10-10T23:02:25.949Z,14.69
2023-10-10T23:05:00.767Z,14.75
2023-10-10T23:07:37.638Z,14.64
2023-10-10T23:10:24.581Z,14.62
2023-10-10T23:13:10.724Z,14.54
2023-10-10T23:15:40.430Z,14.70
2023-10-10T23:18:12.723Z,14.59
2023-10-10T23:20:42.859Z,14.54
2023-10-10T23:23:19.287Z,14.70
2023-10-10T23:25:55.503Z,14.71
2023-10-10T23:28:25.885Z,14.56
2023-10-10T23:30:55.437Z,14.51
2023-10-10T23:33:30.499Z,14.56
2023-10-10T23:36:16.750Z,14.49
2023-10-10T23:38:49.585Z,14.58
2023-10-10T23:41:21.630Z,14.56
2023-10-10T23:43:53.329Z,14.32
2023-10-10T23:53:30.203Z,14.32
2023-10-10T23:58:51.651Z,14.20
